Time;durP1;ratioP1;P1;durP2;ratioP2;P2;SDS_P1;SDS_P2;PMS_P1;PMS_P2;Temp;Humidity;BMP_temperature;BMP_pressure;BME280_temperature;BME280_humidity;BME280_pressure;Samples;Min_cycle;Max_cycle;Signal;HPM_P1;HPM_P2
2020/12/03 00:00:53;;;;;;;24.02;9.35;;;9.10;99.90;;;8.74;77.13;100538.59;5074603;28;20056;-71
2020/12/03 00:03:24;;;;;;;19.30;8.68;;;9.20;99.90;;;9.34;77.88;100642.16;5090130;28;20048;-71
2020/12/03 00:06:02;;;;;;;17.92;9.02;;;9.10;99.90;;;9.08;77.86;100600.00;5073467;28;20106;-71
2020/12/03 00:08:37;;;;;;;21.55;9.85;;;9.10;99.90;;;9.35;77.75;100636.88;5074452;28;20052;-71
2020/12/03 00:11:05;;;;;;;22.10;9.68;;;9.10;99.90;;;9.36;77.54;100641.28;5073385;28;20060;-71
2020/12/03 00:13:37;;;;;;;23.80;10.23;;;9.20;99.90;;;8.89;77.50;100540.28;5074210;28;20056;-71
2020/12/03 00:16:05;;;;;;;20.20;9.55;;;9.20;99.90;;;9.22;77.94;100621.09;5074363;28;20474;-71
2020/12/03 00:18:38;;;;;;;23.30;9.95;;;9.00;99.90;;;7.32;77.58;100372.75;5074584;28;20090;-71
2020/12/03 00:21:10;;;;;;;27.42;11.32;;;9.10;99.90;;;8.99;77.63;100568.41;5073308;28;20402;-71
2020/12/03 00:23:41;;;;;;;27.17;10.43;;;9.00;99.90;;;9.17;78.02;100600.00;5089967;28;20397;-71
2020/12/03 00:26:10;;;;;;;32.47;11.15;;;9.00;99.90;;;8.78;78.22;100542.09;5074586;28;20048;-71
2020/12/03 00:28:40;;;;;;;27.67;10.80;;;8.90;99.90;;;8.94;78.06;100588.66;5074459;28;20193;-71
2020/12/03 00:31:09;;;;;;;19.13;9.85;;;8.80;99.90;;;8.98;78.30;100588.63;5073220;28;20052;-71
2020/12/03 00:33:36;;;;;;;25.10;10.20;;;8.80;99.90;;;8.92;78.54;100588.63;5074481;28;20064;-71
2020/12/03 00:36:04;;;;;;;22.85;10.05;;;8.80;99.90;;;8.78;78.36;100558.78;5072979;28;20055;-71
2020/12/03 00:38:31;;;;;;;21.13;9.75;;;8.70;99.90;;;8.97;78.16;100586.88;5072224;28;20072;-71
2020/12/03 00:41:01;;;;;;;28.23;9.45;;;8.70;99.90;;;8.94;78.10;100572.81;5072876;28;20477;-71
2020/12/03 00:43:28;;;;;;;25.50;9.97;;;8.70;99.90;;;8.85;78.28;100586.00;5074336;28;20047;-71
2020/12/03 00:45:56;;;;;;;23.13;9.88;;;8.70;99.90;;;8.84;78.21;100557.91;5073976;28;20698;-71
2020/12/03 00:48:23;;;;;;;22.48;10.10;;;8.60;99.90;;;8.89;78.45;100562.28;5072394;28;20045;-71
2020/12/03 00:50:52;;;;;;;25.10;9.82;;;8.70;99.90;;;8.74;78.23;100548.25;5072587;28;20139;-71
2020/12/03 00:53:20;;;;;;;22.80;9.95;;;8.60;99.90;;;8.63;78.27;100521.88;5072554;28;20056;-71
2020/12/03 00:55:49;;;;;;;25.50;10.00;;;8.60;99.90;;;8.68;78.63;100549.13;5072266;28;20039;-71
2020/12/03 00:58:18;;;;;;;24.02;10.68;;;8.60;99.90;;;8.77;78.60;100558.78;5072518;28;20136;-71
2020/12/03 01:00:45;;;;;;;24.38;9.32;;;8.60;99.90;;;8.75;78.15;100552.66;5073989;28;20359;-71
2020/12/03 01:03:16;;;;;;;20.33;9.18;;;8.60;99.90;;;8.78;78.30;100550.88;5073496;28;20064;-71
2020/12/03 01:05:44;;;;;;;18.67;8.95;;;8.60;99.90;;;8.65;78.07;100528.03;5073291;28;20056;-71
2020/12/03 01:08:12;;;;;;;20.92;9.32;;;8.60;99.90;;;8.70;78.28;100533.31;5073124;28;20064;-71
2020/12/03 01:10:42;;;;;;;23.52;9.20;;;8.60;99.90;;;8.70;77.86;100536.84;5073676;28;20094;-71
2020/12/03 01:13:10;;;;;;;19.58;8.75;;;8.50;99.90;;;8.70;77.63;100525.41;5073459;28;20135;-72
2020/12/03 01:15:38;;;;;;;21.33;9.27;;;8.60;99.90;;;8.71;77.83;100527.16;5072952;28;20053;-71
2020/12/03 01:18:05;;;;;;;16.13;8.65;;;8.50;99.90;;;8.75;77.76;100528.94;5073096;28;20062;-71
2020/12/03 01:20:34;;;;;;;24.75;9.10;;;8.60;99.90;;;8.81;78.04;100526.25;5072995;28;20032;-71
2020/12/03 01:23:01;;;;;;;22.00;9.20;;;8.60;99.90;;;8.78;77.45;100521.00;5073152;28;20036;-71
2020/12/03 01:25:31;;;;;;;22.40;9.18;;;8.60;99.90;;;8.78;77.56;100521.00;5072869;28;20498;-71
2020/12/03 01:27:58;;;;;;;22.90;9.27;;;8.60;99.90;;;8.80;77.66;100521.88;5073229;28;20048;-71
2020/12/03 01:30:25;;;;;;;22.05;9.85;;;8.60;99.90;;;8.75;77.55;100515.75;5072846;28;20053;-71
2020/12/03 01:32:54;;;;;;;22.65;9.82;;;8.60;99.90;;;8.88;77.47;100522.72;5073076;28;20130;-71
2020/12/03 01:35:23;;;;;;;22.40;10.17;;;8.70;99.90;;;8.90;77.50;100520.97;5073003;28;20056;-71
2020/12/03 01:37:52;;;;;;;24.23;10.00;;;8.70;99.90;;;8.95;77.31;100512.16;5072981;28;20072;-71
2020/12/03 01:40:23;;;;;;;25.95;10.25;;;8.70;99.90;;;8.68;77.39;100484.97;5071506;28;20126;-71
2020/12/03 01:42:54;;;;;;;23.25;10.10;;;8.70;99.90;;;8.82;77.60;100528.00;5072612;28;20058;-71
2020/12/03 01:45:53;;;;;;;29.92;11.07;;;8.70;99.90;;;8.27;78.68;100427.13;5072888;28;20063;-71
2020/12/03 01:48:36;;;;;;;23.65;10.10;;;8.60;99.90;;;8.58;78.11;100538.59;5072432;28;20048;-71
2020/12/03 01:51:15;;;;;;;25.67;10.73;;;8.50;99.90;;;8.65;78.99;100514.84;5072621;28;20067;-71
2020/12/03 01:53:45;;;;;;;31.35;10.88;;;8.50;99.90;;;8.70;78.85;100509.59;5072478;28;20049;-71
2020/12/03 01:56:35;;;;;;;24.48;10.52;;;8.50;99.90;;;8.59;78.94;100495.56;5072749;28;20059;-71
2020/12/03 01:59:05;;;;;;;26.98;11.05;;;8.50;99.90;;;8.58;79.70;100496.44;5071383;28;20051;-71
2020/12/03 02:01:35;;;;;;;24.88;10.63;;;8.40;99.90;;;8.63;79.09;100500.81;5071339;28;20052;-71
2020/12/03 02:04:04;;;;;;;30.08;10.35;;;8.40;99.90;;;8.56;79.56;100496.44;5072194;28;20037;-71
2020/12/03 02:06:35;;;;;;;26.67;11.40;;;8.40;99.90;;;8.54;79.92;100490.28;5088108;28;20127;-71
2020/12/03 02:09:05;;;;;;;24.85;10.45;;;8.40;99.90;;;8.58;79.93;100497.31;5072920;28;20131;-71
2020/12/03 02:11:33;;;;;;;26.52;11.20;;;8.40;99.90;;;8.55;80.28;100488.53;5072133;28;20052;-71
2020/12/03 02:14:05;;;;;;;27.63;10.93;;;8.40;99.90;;;8.56;80.12;100479.72;5072269;28;20131;-71
2020/12/03 02:16:38;;;;;;;26.17;11.25;;;8.30;99.90;;;8.60;80.51;100478.84;5072758;28;20041;-71
2020/12/03 02:19:18;;;;;;;30.10;11.90;;;8.40;99.90;;;8.68;80.17;100479.72;5072431;28;20452;-71
2020/12/03 02:21:53;;;;;;;22.63;11.38;;;8.50;99.90;;;8.65;80.43;100463.91;5072435;28;20051;-71
2020/12/03 02:24:21;;;;;;;34.00;12.65;;;8.40;99.90;;;8.67;80.52;100463.00;5070986;28;20052;-71
2020/12/03 02:26:50;;;;;;;22.73;12.02;;;8.50;99.90;;;8.59;80.71;100466.56;5072145;28;20048;-71
2020/12/03 02:29:22;;;;;;;27.60;12.52;;;8.40;99.90;;;8.50;80.79;100488.53;5071954;28;20522;-71
2020/12/03 02:31:51;;;;;;;28.10;11.65;;;8.40;99.90;;;8.46;80.64;100418.28;5071984;28;20486;-71
2020/12/03 02:34:19;;;;;;;24.63;12.07;;;8.40;99.90;;;8.36;81.00;100394.59;5072063;28;20041;-71
2020/12/03 02:36:53;;;;;;;29.45;12.80;;;8.40;99.90;;;8.58;81.18;100438.44;5071994;28;20146;-71
2020/12/03 02:39:22;;;;;;;29.23;13.55;;;8.40;99.90;;;8.60;81.45;100428.75;5071966;28;20094;-71
2020/12/03 02:41:53;;;;;;;31.48;13.05;;;8.40;99.90;;;8.53;81.17;100427.03;5070821;28;20067;-71
2020/12/03 02:44:22;;;;;;;28.13;13.00;;;8.50;99.90;;;8.64;81.32;100414.69;5072093;28;20545;-71
2020/12/03 02:46:54;;;;;;;29.10;13.27;;;8.50;99.90;;;8.61;81.29;100425.25;5072111;28;20040;-71
2020/12/03 02:49:21;;;;;;;29.83;13.63;;;8.50;99.90;;;8.63;81.77;100421.72;5071796;28;20041;-71
2020/12/03 02:51:50;;;;;;;32.70;13.73;;;8.50;99.90;;;8.54;81.28;100399.78;5087636;28;20479;-71
2020/12/03 02:54:17;;;;;;;30.42;14.90;;;8.40;99.90;;;8.65;81.92;100400.66;5070726;28;20504;-71
2020/12/03 02:56:45;;;;;;;27.85;14.27;;;8.40;99.90;;;8.64;81.90;100404.16;5072125;28;20715;-71
2020/12/03 02:59:13;;;;;;;29.80;15.23;;;8.40;99.90;;;8.51;82.39;100395.44;5070506;28;20507;-71
2020/12/03 03:01:41;;;;;;;32.53;15.57;;;8.40;99.90;;;8.49;83.31;100406.84;5073071;28;20551;-71
2020/12/03 03:04:09;;;;;;;32.38;16.30;;;8.30;99.90;;;8.61;82.76;100391.88;5075635;28;20045;-71
2020/12/03 03:06:38;;;;;;;28.27;15.85;;;8.30;99.90;;;8.60;83.33;100386.59;5076191;28;20044;-71
2020/12/03 03:09:07;;;;;;;30.17;16.48;;;8.40;99.90;;;8.53;83.50;100382.25;5075922;28;20040;-71
2020/12/03 03:11:36;;;;;;;36.50;17.52;;;8.40;99.90;;;8.43;83.22;100367.34;5076025;28;20044;-71
2020/12/03 03:14:04;;;;;;;35.92;18.90;;;8.30;99.90;;;8.31;84.09;100368.25;5075258;28;20094;-71
2020/12/03 03:16:34;;;;;;;38.15;18.05;;;8.20;99.90;;;8.49;84.05;100376.13;5074446;28;20056;-71
2020/12/03 03:19:01;;;;;;;32.10;18.63;;;8.30;99.90;;;8.41;83.83;100359.44;5075360;28;20036;-71
2020/12/03 03:21:29;;;;;;;33.45;20.05;;;8.30;99.90;;;8.43;84.80;100357.69;5075614;28;20049;-71
2020/12/03 03:23:58;;;;;;;36.53;20.35;;;8.30;99.90;;;7.73;84.36;100217.47;5075161;28;20037;-71
2020/12/03 03:26:27;;;;;;;31.13;20.00;;;8.30;99.90;;;8.57;84.13;100349.72;5075280;28;20068;-71
2020/12/03 03:28:54;;;;;;;32.90;19.85;;;8.30;99.90;;;8.47;84.42;100343.63;5075171;28;20053;-71
2020/12/03 03:31:23;;;;;;;38.63;21.27;;;8.30;99.90;;;8.60;84.57;100328.59;5075173;28;20097;-71
2020/12/03 03:33:50;;;;;;;35.55;19.85;;;8.40;99.90;;;8.62;83.89;100325.09;5075389;28;20045;-71
2020/12/03 03:36:18;;;;;;;37.20;22.38;;;8.40;99.90;;;8.60;84.14;100310.16;5075073;28;20094;-71
2020/12/03 03:38:47;;;;;;;33.25;18.80;;;8.40;99.90;;;8.58;84.67;100309.28;5075275;28;20033;-71
2020/12/03 03:41:14;;;;;;;31.58;18.65;;;8.40;99.90;;;8.46;84.70;100320.75;5074966;28;20033;-71
2020/12/03 03:43:42;;;;;;;32.63;18.92;;;8.40;99.90;;;8.59;84.31;100303.16;5075072;28;20092;-72
2020/12/03 03:46:10;;;;;;;31.80;19.20;;;8.40;99.90;;;8.55;84.89;100304.03;5075194;28;20036;-72
2020/12/03 03:48:38;;;;;;;32.42;19.23;;;8.40;99.90;;;8.27;85.16;100247.09;5074855;28;20493;-71
2020/12/03 03:51:07;;;;;;;32.47;19.30;;;8.40;99.90;;;8.70;85.11;100285.50;5074732;28;20056;-71
2020/12/03 03:53:34;;;;;;;30.77;19.02;;;8.50;99.90;;;8.84;84.90;100281.03;5075083;28;20045;-71
2020/12/03 03:56:02;;;;;;;33.33;18.73;;;8.60;99.90;;;8.94;84.41;100287.97;5074720;28;20048;-71
2020/12/03 03:58:29;;;;;;;31.63;18.95;;;8.70;99.90;;;8.85;84.43;100266.94;5075033;28;20090;-72
2020/12/03 04:00:59;;;;;;;31.13;19.73;;;8.70;99.90;;;9.00;84.11;100258.94;5074633;28;20037;-72
2020/12/03 04:03:29;;;;;;;35.50;19.13;;;8.80;99.90;;;8.99;84.10;100263.31;5074861;28;20076;-71
2020/12/03 04:05:56;;;;;;;36.17;21.88;;;8.80;99.90;;;8.82;83.65;100237.97;5074845;28;20045;-71
2020/12/03 04:08:27;;;;;;;36.95;22.67;;;8.80;99.90;;;8.38;83.98;100148.66;5074484;28;20033;-71
2020/12/03 04:10:55;;;;;;;35.15;23.67;;;8.80;99.90;;;9.02;84.10;100242.19;5074630;28;20047;-71
2020/12/03 04:13:26;;;;;;;36.33;23.65;;;8.80;99.90;;;9.14;83.62;100245.63;5073434;28;20401;-71
2020/12/03 04:15:54;;;;;;;36.42;25.08;;;8.90;99.90;;;9.16;83.29;100235.91;5074689;28;20098;-71
2020/12/03 04:18:26;;;;;;;39.88;26.23;;;8.90;99.90;;;9.03;82.96;100216.69;5074514;28;20061;-71
2020/12/03 04:21:00;;;;;;;41.92;28.00;;;8.90;99.90;;;8.97;82.84;100214.97;5073276;28;20135;-71
2020/12/03 04:23:29;;;;;;;49.08;31.30;;;8.90;99.90;;;8.75;82.79;100191.44;5074507;28;20044;-71
2020/12/03 04:25:57;;;;;;;47.67;32.00;;;8.80;99.90;;;8.98;83.07;100234.31;5074652;28;20032;-71
2020/12/03 04:28:24;;;;;;;53.70;33.05;;;8.80;99.90;;;8.96;83.57;100225.56;5073046;28;20070;-71
2020/12/03 04:30:53;;;;;;;52.78;33.60;;;8.80;99.90;;;8.97;83.30;100230.81;5073033;28;20383;-71
2020/12/03 04:33:22;;;;;;;51.95;33.50;;;8.80;99.90;;;8.99;83.83;100231.66;5074282;28;20055;-71
2020/12/03 04:35:49;;;;;;;48.25;35.38;;;8.80;99.90;;;8.93;83.96;100230.84;5073957;28;20047;-71
2020/12/03 04:38:16;;;;;;;50.92;34.28;;;8.70;99.90;;;8.79;84.17;100196.66;5073904;28;20398;-71
2020/12/03 04:40:46;;;;;;;49.58;33.95;;;8.70;99.90;;;8.92;83.96;100237.84;5073808;28;20095;-71
2020/12/03 04:43:29;;;;;;;52.25;33.33;;;8.80;99.90;;;9.00;84.33;100225.50;5074258;28;20041;-71
2020/12/03 04:46:04;;;;;;;47.53;32.60;;;8.80;99.90;;;9.06;84.00;100216.66;5074171;28;20405;-71
2020/12/03 04:49:28;;;;;;;42.88;32.45;;;8.80;99.90;;;9.08;83.83;100209.59;5074051;28;20055;-71
2020/12/03 04:52:39;;;;;;;47.75;32.58;;;8.80;99.90;;;9.18;83.88;100206.00;4994171;28;20061;-71
2020/12/03 04:55:23;;;;;;;;;;;8.90;99.90;;;9.17;83.75;100192.81;5074154;28;20041;-71
2020/12/03 04:58:02;;;;;;;48.15;33.38;;;9.00;99.90;;;9.18;84.15;100192.78;5072621;28;19978;-71
2020/12/03 05:00:42;;;;;;;46.92;33.88;;;8.90;99.90;;;9.22;83.95;100180.44;5073861;28;20094;-71
2020/12/03 05:03:54;;;;;;;51.00;34.95;;;9.00;99.90;;;9.11;83.64;100177.94;5073339;28;20037;-71
2020/12/03 05:06:57;;;;;;;53.00;34.78;;;8.90;99.90;;;9.14;83.84;100169.97;5073374;28;20048;-75
2020/12/03 05:09:31;;;;;;;54.20;34.92;;;8.90;99.90;;;9.12;84.57;100168.25;5066917;28;20048;-71
2020/12/03 05:12:10;;;;;;;51.92;36.95;;;8.90;99.90;;;8.99;84.21;100143.75;5073730;28;20045;-71
2020/12/03 05:14:50;;;;;;;49.03;34.83;;;8.90;99.90;;;9.19;84.09;100157.63;5073039;28;20842;-71
2020/12/03 05:17:32;;;;;;;48.27;35.73;;;8.90;99.90;;;9.27;84.30;100142.56;5073246;28;20113;-71
2020/12/03 05:20:30;;;;;;;51.10;35.10;;;9.00;99.90;;;9.30;84.05;100139.91;5073133;28;20486;-71
2020/12/03 05:23:13;;;;;;;57.03;37.45;;;9.00;99.90;;;9.20;83.54;100119.78;5067617;28;20087;-71
2020/12/03 05:25:41;;;;;;;49.53;34.85;;;9.10;99.90;;;9.29;83.38;100116.19;5071517;28;20057;-70
2020/12/03 05:28:31;;;;;;;52.72;36.88;;;9.10;99.90;;;9.36;83.19;100099.38;5073130;28;20127;-70
2020/12/03 05:31:13;;;;;;;46.03;33.97;;;9.20;99.90;;;9.51;82.97;100104.47;5065899;28;20133;-70
2020/12/03 05:33:41;;;;;;;49.92;34.97;;;9.30;99.90;;;9.52;83.26;100101.81;5073182;28;20109;-70
2020/12/03 05:36:28;;;;;;;50.72;36.60;;;9.30;99.90;;;9.60;82.88;100107.00;5073081;28;20058;-70
2020/12/03 05:38:59;;;;;;;50.33;35.90;;;9.40;99.90;;;9.56;82.77;100097.38;5072855;28;20398;-70
2020/12/03 05:41:36;;;;;;;46.65;34.55;;;9.40;99.90;;;9.53;82.75;100082.44;5073134;28;20052;-69
2020/12/03 05:44:27;;;;;;;45.17;32.95;;;9.40;99.90;;;9.47;82.84;100071.97;5071601;28;20478;-69
2020/12/03 05:46:57;;;;;;;37.67;30.63;;;9.30;99.90;;;9.40;82.61;100078.22;5065687;28;20052;-70
2020/12/03 05:49:28;;;;;;;45.55;31.42;;;9.20;99.90;;;9.12;83.69;100045.13;5072477;28;20564;-70
2020/12/03 05:52:19;;;;;;;50.22;33.33;;;9.10;99.90;;;9.04;83.80;100061.03;5072864;28;20405;-68
2020/12/03 05:55:06;;;;;;;52.42;36.00;;;8.90;99.90;;;8.82;84.05;100053.41;5072844;28;20155;-68
2020/12/03 05:57:37;;;;;;;55.35;38.97;;;8.80;99.90;;;8.84;85.08;100072.72;5072755;28;20162;-68
2020/12/03 06:00:16;;;;;;;51.05;37.30;;;8.70;99.90;;;8.83;85.20;100045.47;5072485;28;20098;-68
2020/12/03 06:03:12;;;;;;;53.78;37.40;;;8.80;99.90;;;8.92;85.00;100036.59;5072412;28;20036;-68
2020/12/03 06:05:48;;;;;;;60.03;40.17;;;8.80;99.90;;;9.00;84.72;100063.75;5072290;28;20386;-68
2020/12/03 06:08:47;;;;;;;56.75;39.35;;;8.80;99.90;;;9.15;85.10;100046.88;5072325;28;20044;-68
2020/12/03 06:11:36;;;;;;;57.97;38.78;;;8.90;99.90;;;9.18;84.64;100034.50;5072419;28;20052;-68
2020/12/03 06:14:38;;;;;;;51.20;37.35;;;9.00;99.90;;;9.34;84.23;100036.06;5072090;28;20044;-68
2020/12/03 06:17:40;;;;;;;53.17;36.45;;;9.00;99.90;;;9.45;83.69;100026.22;5072630;28;20094;-68
2020/12/03 06:20:27;;;;;;;48.78;35.92;;;9.20;99.90;;;9.03;83.79;99974.91;5072093;28;20041;-68
2020/12/03 06:23:18;;;;;;;52.33;37.13;;;9.20;99.90;;;9.30;83.97;100030.84;5072298;28;20045;-68
2020/12/03 06:25:52;;;;;;;46.33;33.97;;;9.10;99.90;;;8.98;83.98;99958.25;5072258;28;20464;-68
2020/12/03 06:28:50;;;;;;;52.10;35.85;;;9.20;99.90;;;9.32;83.57;100022.03;5072213;28;20393;-68
2020/12/03 06:31:26;;;;;;;49.50;35.97;;;9.10;99.90;;;6.67;83.51;99559.06;5072145;28;20055;-69
2020/12/03 06:34:07;;;;;;;50.03;36.15;;;9.10;99.90;;;9.14;83.91;99971.28;5072444;28;20059;-69
2020/12/03 06:36:41;;;;;;;46.33;34.35;;;9.10;99.90;;;9.46;83.62;100012.16;5070359;28;20056;-69
2020/12/03 06:39:30;;;;;;;51.53;36.53;;;9.20;99.90;;;9.29;83.35;99992.16;5072293;28;20044;-68
2020/12/03 06:42:07;;;;;;;58.88;38.35;;;9.20;99.90;;;9.40;83.06;100025.44;5070661;28;20106;-69
2020/12/03 06:44:40;;;;;;;60.25;38.95;;;9.20;99.90;;;9.01;83.69;99966.16;5071960;28;20044;-68
2020/12/03 06:47:55;;;;;;;60.47;39.22;;;9.00;99.90;;;9.13;83.75;99985.34;5070926;28;20044;-68
2020/12/03 06:51:02;;;;;;;59.30;38.53;;;9.00;99.90;;;9.14;84.09;99981.81;5071926;28;20041;-68
2020/12/03 06:54:18;;;;;;;58.33;39.13;;;8.90;99.90;;;9.18;84.20;99972.94;5071922;28;20044;-69
2020/12/03 06:57:47;;;;;;;60.53;40.15;;;8.90;99.90;;;9.13;83.88;99959.84;5069905;28;20053;-69
2020/12/03 07:00:43;;;;;;;62.53;40.13;;;9.00;99.90;;;9.20;83.92;99972.03;5048536;28;20060;-69
2020/12/03 07:03:47;;;;;;;61.15;41.65;;;9.00;99.90;;;9.12;84.26;99957.22;5071941;28;20086;-69
2020/12/03 07:07:25;;;;;;;55.05;40.03;;;9.00;99.90;;;9.24;83.55;99943.84;5042035;28;20563;-69
2020/12/03 07:10:44;;;;;;;64.20;40.40;;;9.00;99.90;;;9.21;83.49;99939.50;5009843;28;20943;-70
2020/12/03 07:14:13;;;;;;;57.03;39.80;;;9.00;99.90;;;9.22;83.76;99943.88;5009517;28;20539;-69
2020/12/03 07:17:33;;;;;;;56.20;39.70;;;9.00;99.90;;;9.05;83.49;99916.88;5071857;28;20044;-69
2020/12/03 07:21:06;;;;;;;53.42;37.03;;;9.00;99.90;;;9.24;83.63;99946.50;5071582;28;20048;-69
2020/12/03 07:23:43;;;;;;;57.60;38.58;;;9.10;99.90;;;9.21;83.12;99949.19;5057067;28;20060;-69
2020/12/03 07:27:08;;;;;;;56.78;38.55;;;9.00;99.90;;;9.27;83.34;99942.03;5071775;28;20052;-69
2020/12/03 07:29:57;;;;;;;55.38;37.28;;;9.00;99.90;;;9.21;83.28;99936.88;5042445;28;20056;-68
2020/12/03 07:32:45;;;;;;;53.92;38.38;;;9.00;99.90;;;9.15;83.67;99939.59;5071683;28;20401;-69
2020/12/03 07:35:29;;;;;;;56.80;38.80;;;8.90;99.90;;;9.15;83.42;99936.94;5087253;28;20131;-69
2020/12/03 07:38:10;;;;;;;55.33;38.10;;;8.90;99.90;;;9.05;83.20;99911.59;5071379;28;20413;-68
2020/12/03 07:40:39;;;;;;;54.67;37.78;;;9.00;99.90;;;9.28;83.31;99927.09;5070332;28;20044;-68
2020/12/03 07:43:20;;;;;;;59.25;39.85;;;9.00;99.90;;;8.92;83.18;99888.91;5087099;28;20140;-68
2020/12/03 07:45:50;;;;;;;58.13;38.92;;;9.00;99.90;;;9.09;83.28;99930.00;5071350;28;20478;-68
2020/12/03 07:48:23;;;;;;;56.63;38.90;;;8.90;99.90;;;9.09;82.95;99910.66;5073181;28;20119;-69
2020/12/03 07:51:12;;;;;;;54.38;37.25;;;9.00;99.90;;;9.20;83.10;99916.66;5074941;28;20063;-69
2020/12/03 07:53:40;;;;;;;53.75;37.17;;;9.00;99.90;;;9.13;83.06;99920.28;5090675;28;20543;-70
2020/12/03 07:56:36;;;;;;;57.47;38.75;;;9.00;99.90;;;9.10;82.77;99909.75;5075005;28;20072;-69
2020/12/03 07:59:38;;;;;;;52.90;36.63;;;9.00;99.90;;;9.01;82.93;99912.53;5074747;28;20494;-69
2020/12/03 08:02:50;;;;;;;50.20;35.03;;;8.90;99.90;;;9.13;83.00;99909.72;5073606;28;20099;-69
2020/12/03 08:05:52;;;;;;;52.55;36.95;;;8.90;99.90;;;8.28;83.33;99765.03;5074478;28;20044;-69
2020/12/03 08:08:36;;;;;;;53.42;37.67;;;8.90;99.90;;;9.19;83.04;99906.13;5074759;28;20472;-69
2020/12/03 08:11:05;;;;;;;45.40;35.15;;;9.00;99.90;;;9.22;82.96;99906.94;5074727;28;20048;-69
2020/12/03 08:13:37;;;;;;;51.75;37.55;;;9.00;99.90;;;9.26;83.29;99908.66;5090165;28;20478;-69
2020/12/03 08:16:07;;;;;;;56.17;40.45;;;9.10;99.90;;;9.20;83.16;99908.72;5074437;28;20060;-69
2020/12/03 08:18:41;;;;;;;56.90;40.72;;;9.10;99.90;;;9.19;83.33;99912.28;5074406;28;20493;-69
2020/12/03 08:21:10;;;;;;;59.13;40.33;;;9.00;99.90;;;9.07;83.38;99912.44;5074503;28;20436;-69
2020/12/03 08:23:38;;;;;;;58.45;41.53;;;9.00;99.90;;;9.03;83.56;99892.28;5073094;28;20049;-69
2020/12/03 08:26:05;;;;;;;54.53;39.08;;;8.90;99.90;;;8.86;83.94;99866.16;5074423;28;20044;-69
2020/12/03 08:28:34;;;;;;;54.35;39.28;;;8.90;99.90;;;9.00;84.13;99898.44;5074043;28;20482;-69
2020/12/03 08:31:01;;;;;;;57.75;39.00;;;8.90;99.90;;;8.91;83.93;99895.94;5074121;28;20512;-69
2020/12/03 08:33:32;;;;;;;55.30;39.00;;;8.80;99.90;;;8.47;84.75;99828.88;5074184;28;20040;-69
2020/12/03 08:36:01;;;;;;;;;;;8.80;99.90;;;8.59;84.74;99837.53;5074815;28;20048;-69
2020/12/03 08:38:31;;;;;;;57.90;39.75;;;8.70;99.90;;;8.73;84.63;99855.78;5074242;28;19943;-69
2020/12/03 08:41:03;;;;;;;64.32;41.90;;;8.70;99.90;;;8.58;85.64;99843.66;5074239;28;20044;-69
2020/12/03 08:43:32;;;;;;;61.15;40.10;;;8.50;99.90;;;8.56;85.96;99857.75;5073842;28;20048;-69
2020/12/03 08:46:08;;;;;;;69.18;44.20;;;8.50;99.90;;;8.25;86.68;99838.81;5074058;28;20063;-69
2020/12/03 08:48:39;;;;;;;69.97;45.17;;;8.30;99.90;;;8.19;87.35;99839.72;5073965;28;20105;-69
2020/12/03 08:51:09;;;;;;;60.67;42.05;;;8.20;99.90;;;7.87;87.36;99798.84;5072406;28;20106;-69
2020/12/03 08:53:39;;;;;;;63.40;40.70;;;8.20;99.90;;;8.02;88.08;99835.53;5072730;28;20056;-69
2020/12/03 08:56:29;;;;;;;62.17;41.87;;;8.10;99.90;;;8.02;88.29;99791.66;5073625;28;20052;-69
2020/12/03 08:59:04;;;;;;;59.53;40.80;;;8.10;99.90;;;8.17;88.21;99819.56;5073367;28;20347;-69
2020/12/03 09:01:36;;;;;;;72.28;48.00;;;8.20;99.90;;;7.58;88.91;99786.00;5073947;28;20048;-70
2020/12/03 09:04:06;;;;;;;69.03;44.22;;;7.90;99.90;;;7.88;89.05;99817.25;5073666;28;20135;-69
2020/12/03 09:06:44;;;;;;;64.38;44.58;;;7.90;99.90;;;7.99;88.96;99806.63;5073358;28;20036;-69
2020/12/03 09:09:12;;;;;;;62.85;43.70;;;7.90;99.90;;;7.98;88.79;99813.63;5073602;28;20049;-69
2020/12/03 09:11:40;;;;;;;66.50;42.50;;;8.00;99.90;;;7.75;88.84;99778.78;5071939;28;20758;-69
2020/12/03 09:14:07;;;;;;;67.15;43.72;;;7.90;99.90;;;7.93;89.03;99793.53;5072930;28;20051;-69
2020/12/03 09:16:36;;;;;;;69.57;44.83;;;7.90;99.90;;;8.00;89.05;99787.28;5072224;28;20121;-69
2020/12/03 09:19:04;;;;;;;71.35;45.50;;;7.90;99.90;;;7.95;88.81;99792.63;5073351;28;20049;-69
2020/12/03 09:21:32;;;;;;;73.70;43.75;;;8.00;99.90;;;7.85;89.05;99785.72;5073269;28;20119;-69
2020/12/03 09:24:00;;;;;;;68.18;41.40;;;7.90;99.90;;;8.07;88.85;99767.91;5072819;28;20492;-69
2020/12/03 09:26:31;;;;;;;65.72;41.63;;;8.00;99.90;;;8.12;88.71;99769.59;5072957;28;20044;-69
2020/12/03 09:29:00;;;;;;;65.82;41.95;;;8.10;99.90;;;8.20;88.28;99762.47;5072870;28;20090;-69
2020/12/03 09:31:31;;;;;;;62.55;41.67;;;8.20;99.90;;;8.13;88.27;99750.25;5073082;28;20090;-69
2020/12/03 09:34:00;;;;;;;64.03;40.78;;;8.20;99.90;;;8.32;88.09;99756.22;5071608;28;20055;-69
2020/12/03 09:36:28;;;;;;;58.72;40.15;;;8.30;99.90;;;8.37;87.72;99745.59;5073062;28;20448;-69
2020/12/03 09:38:59;;;;;;;52.72;39.38;;;8.30;99.90;;;8.51;87.19;99741.88;5071640;28;20106;-69
2020/12/03 09:41:30;;;;;;;54.15;38.15;;;8.40;99.90;;;8.57;87.05;99738.28;5072786;28;20036;-69
2020/12/03 09:44:04;;;;;;;52.40;36.25;;;8.50;99.90;;;8.57;86.89;99733.00;5072584;28;20571;-69
2020/12/03 09:46:38;;;;;;;53.22;38.30;;;8.50;99.90;;;7.73;86.38;99606.88;5072941;28;20052;-69
2020/12/03 09:49:12;;;;;;;54.90;38.25;;;8.50;99.90;;;8.35;86.35;99740.34;5072872;28;20049;-69
2020/12/03 09:51:42;;;;;;;52.55;36.83;;;8.40;99.90;;;8.11;87.07;99698.47;5072581;28;20090;-69
2020/12/03 09:54:10;;;;;;;49.83;36.15;;;8.30;99.90;;;8.47;86.97;99718.22;5072734;28;20093;-69
2020/12/03 09:56:39;;;;;;;49.20;36.60;;;8.40;99.90;;;8.50;86.70;99716.41;5072402;28;20478;-69
2020/12/03 09:59:07;;;;;;;46.17;33.90;;;8.40;99.90;;;8.50;86.85;99708.50;5072669;28;20064;-70
2020/12/03 10:02:01;;;;;;;48.05;34.38;;;8.40;99.90;;;8.58;86.18;99703.13;5087892;28;20082;-69
2020/12/03 10:04:53;;;;;;;46.05;33.40;;;8.40;99.90;;;8.46;86.00;99669.06;5072187;28;20136;-69
2020/12/03 10:07:38;;;;;;;44.50;33.38;;;8.50;99.90;;;8.62;85.95;99694.28;5072552;28;20249;-70
2020/12/03 10:10:16;;;;;;;40.22;30.85;;;8.50;99.90;;;8.69;85.77;99693.31;5072792;28;20055;-69
2020/12/03 10:13:00;;;;;;;39.78;31.30;;;8.50;99.90;;;8.69;85.70;99690.66;5070352;28;20049;-69
2020/12/03 10:16:02;;;;;;;39.13;30.00;;;8.60;99.90;;;8.61;85.58;99680.25;5087577;28;20502;-70
2020/12/03 10:18:45;;;;;;;40.58;31.02;;;8.50;99.90;;;8.53;85.17;99690.03;5070824;28;20139;-69
2020/12/03 10:21:16;;;;;;;43.30;29.25;;;8.50;99.90;;;7.88;86.42;99634.75;5072113;28;20448;-69
2020/12/03 10:23:50;;;;;;;44.15;32.85;;;8.20;99.90;;;8.14;87.42;99665.09;5072075;28;20481;-70
2020/12/03 10:26:33;;;;;;;44.80;32.78;;;8.10;99.90;;;7.99;87.61;99662.66;5070991;28;20486;-69
2020/12/03 10:29:30;;;;;;;41.95;29.70;;;8.10;99.90;;;8.05;87.65;99651.19;5072286;28;20056;-69
2020/12/03 10:31:59;;;;;;;41.00;29.95;;;8.00;99.90;;;8.12;87.24;99666.88;5068753;28;20052;-69
2020/12/03 10:34:29;;;;;;;41.47;30.75;;;8.10;99.90;;;8.06;87.91;99632.75;5070875;28;20559;-69
2020/12/03 10:37:02;;;;;;;42.70;29.85;;;8.00;99.90;;;8.12;87.92;99624.75;5072588;28;20033;-69
2020/12/03 10:39:38;;;;;;;41.13;29.08;;;8.10;99.90;;;8.03;87.95;99616.13;5071875;28;20047;-69
2020/12/03 10:42:08;;;;;;;41.58;30.08;;;8.00;99.90;;;7.88;88.04;99606.66;5070621;28;20127;-69
2020/12/03 10:44:40;;;;;;;43.50;30.47;;;8.00;99.90;;;7.94;88.22;99608.34;5071740;28;20033;-69
2020/12/03 10:47:13;;;;;;;44.08;30.13;;;7.90;99.90;;;7.75;88.09;99591.94;5071801;28;20041;-69
2020/12/03 10:49:43;;;;;;;48.83;31.45;;;7.90;99.90;;;7.83;88.04;99591.84;5071867;28;20046;-69
2020/12/03 10:52:11;;;;;;;42.88;31.95;;;7.90;99.90;;;8.01;88.33;99587.16;5071754;28;20472;-69
2020/12/03 10:54:41;;;;;;;46.45;30.55;;;8.00;99.90;;;7.98;88.22;99563.53;5072305;28;20043;-69